sensor_id;sensor_type;location;lat;lon;timestamp;temperature;humidity
38118;DHT22;23928;47.562;7.508;2023-05-29T00:02:09;15.10;99.90
38118;DHT22;23928;47.562;7.508;2023-05-29T00:04:35;14.60;99.90
38118;DHT22;23928;47.562;7.508;2023-05-29T00:07:02;14.70;99.90
38118;DHT22;23928;47.562;7.508;2023-05-29T00:09:27;14.70;99.90
38118;DHT22;23928;47.562;7.508;2023-05-29T00:11:53;14.60;99.90
38118;DHT22;23928;47.562;7.508;2023-05-29T00:14:19;14.40;99.90
38118;DHT22;23928;47.562;7.508;2023-05-29T00:16:49;14.20;99.90
38118;DHT22;23928;47.562;7.508;2023-05-29T00:19:16;14.10;99.90
38118;DHT22;23928;47.562;7.508;2023-05-29T00:21:47;14.20;99.90
38118;DHT22;23928;47.562;7.508;2023-05-29T00:24:16;13.90;99.90
38118;DHT22;23928;47.562;7.508;2023-05-29T00:26:43;13.70;99.90
38118;DHT22;23928;47.562;7.508;2023-05-29T00:29:09;13.70;99.90
38118;DHT22;23928;47.562;7.508;2023-05-29T00:31:35;13.70;99.90
38118;DHT22;23928;47.562;7.508;2023-05-29T00:34:01;13.90;99.90
38118;DHT22;23928;47.562;7.508;2023-05-29T00:36:27;14.10;99.90
38118;DHT22;23928;47.562;7.508;2023-05-29T00:38:54;14.20;99.90
38118;DHT22;23928;47.562;7.508;2023-05-29T00:41:19;13.80;99.90
38118;DHT22;23928;47.562;7.508;2023-05-29T00:43:45;13.60;99.90
38118;DHT22;23928;47.562;7.508;2023-05-29T00:46:13;13.60;99.90
38118;DHT22;23928;47.562;7.508;2023-05-29T00:48:39;13.40;99.90
38118;DHT22;23928;47.562;7.508;2023-05-29T00:51:06;13.40;99.90
38118;DHT22;23928;47.562;7.508;2023-05-29T00:53:33;13.30;99.90
38118;DHT22;23928;47.562;7.508;2023-05-29T00:55:59;13.30;99.90
38118;DHT22;23928;47.562;7.508;2023-05-29T00:58:26;13.50;99.90
38118;DHT22;23928;47.562;7.508;2023-05-29T01:00:51;13.60;99.90
38118;DHT22;23928;47.562;7.508;2023-05-29T01:03:18;13.60;99.90
38118;DHT22;23928;47.562;7.508;2023-05-29T01:05:44;13.40;99.90
38118;DHT22;23928;47.562;7.508;2023-05-29T01:08:12;13.40;99.90
38118;DHT22;23928;47.562;7.508;2023-05-29T01:10:37;13.30;99.90
38118;DHT22;23928;47.562;7.508;2023-05-29T01:13:08;13.40;99.90
38118;DHT22;23928;47.562;7.508;2023-05-29T01:26:53;13.20;99.90
38118;DHT22;23928;47.562;7.508;2023-05-29T01:29:31;13.10;99.90
38118;DHT22;23928;47.562;7.508;2023-05-29T01:31:58;12.90;99.90
38118;DHT22;23928;47.562;7.508;2023-05-29T01:34:24;12.90;99.90
38118;DHT22;23928;47.562;7.508;2023-05-29T01:36:50;12.80;99.90
38118;DHT22;23928;47.562;7.508;2023-05-29T01:39:16;12.80;99.90
38118;DHT22;23928;47.562;7.508;2023-05-29T01:41:45;12.70;99.90
38118;DHT22;23928;47.562;7.508;2023-05-29T01:44:12;12.70;99.90
38118;DHT22;23928;47.562;7.508;2023-05-29T01:46:42;12.80;99.90
38118;DHT22;23928;47.562;7.508;2023-05-29T01:49:09;13.00;99.90
38118;DHT22;23928;47.562;7.508;2023-05-29T01:51:35;13.30;99.90
38118;DHT22;23928;47.562;7.508;2023-05-29T01:54:01;13.50;99.90
38118;DHT22;23928;47.562;7.508;2023-05-29T01:56:28;13.60;99.90
38118;DHT22;23928;47.562;7.508;2023-05-29T01:58:57;13.50;99.90
38118;DHT22;23928;47.562;7.508;2023-05-29T02:01:24;13.20;99.90
38118;DHT22;23928;47.562;7.508;2023-05-29T02:03:50;12.90;99.90
38118;DHT22;23928;47.562;7.508;2023-05-29T02:06:19;12.90;99.90
38118;DHT22;23928;47.562;7.508;2023-05-29T02:08:44;12.70;99.90
38118;DHT22;23928;47.562;7.508;2023-05-29T02:11:10;12.80;99.90
38118;DHT22;23928;47.562;7.508;2023-05-29T02:13:36;12.90;99.90
38118;DHT22;23928;47.562;7.508;2023-05-29T02:16:01;12.90;99.90
38118;DHT22;23928;47.562;7.508;2023-05-29T02:18:27;12.80;99.90
38118;DHT22;23928;47.562;7.508;2023-05-29T02:20:52;12.60;99.90
38118;DHT22;23928;47.562;7.508;2023-05-29T02:23:18;12.60;99.90
38118;DHT22;23928;47.562;7.508;2023-05-29T02:25:45;12.60;99.90
38118;DHT22;23928;47.562;7.508;2023-05-29T02:28:11;12.60;99.90
38118;DHT22;23928;47.562;7.508;2023-05-29T02:30:36;12.70;99.90
38118;DHT22;23928;47.562;7.508;2023-05-29T02:33:02;12.70;99.90
38118;DHT22;23928;47.562;7.508;2023-05-29T02:35:28;13.00;99.90
38118;DHT22;23928;47.562;7.508;2023-05-29T02:37:53;13.00;99.90
38118;DHT22;23928;47.562;7.508;2023-05-29T02:40:19;12.70;99.90
38118;DHT22;23928;47.562;7.508;2023-05-29T02:42:46;12.50;99.90
38118;DHT22;23928;47.562;7.508;2023-05-29T02:45:11;12.40;99.90
38118;DHT22;23928;47.562;7.508;2023-05-29T02:47:37;12.50;99.90
38118;DHT22;23928;47.562;7.508;2023-05-29T02:50:03;12.60;99.90
38118;DHT22;23928;47.562;7.508;2023-05-29T02:52:29;12.70;99.90
38118;DHT22;23928;47.562;7.508;2023-05-29T02:54:58;12.40;99.90
38118;DHT22;23928;47.562;7.508;2023-05-29T02:57:24;12.20;99.90
38118;DHT22;23928;47.562;7.508;2023-05-29T02:59:50;12.10;99.90
38118;DHT22;23928;47.562;7.508;2023-05-29T03:02:17;12.00;99.90
38118;DHT22;23928;47.562;7.508;2023-05-29T03:04:44;11.80;99.90
38118;DHT22;23928;47.562;7.508;2023-05-29T03:07:09;11.90;99.90
38118;DHT22;23928;47.562;7.508;2023-05-29T03:09:35;11.90;99.90
38118;DHT22;23928;47.562;7.508;2023-05-29T03:12:01;11.90;99.90
38118;DHT22;23928;47.562;7.508;2023-05-29T03:14:27;12.00;99.90
38118;DHT22;23928;47.562;7.508;2023-05-29T03:16:53;11.90;99.90
38118;DHT22;23928;47.562;7.508;2023-05-29T03:19:19;11.90;99.90
38118;DHT22;23928;47.562;7.508;2023-05-29T03:21:45;12.20;99.90
38118;DHT22;23928;47.562;7.508;2023-05-29T03:24:11;12.40;99.90
38118;DHT22;23928;47.562;7.508;2023-05-29T03:26:38;12.20;99.90
38118;DHT22;23928;47.562;7.508;2023-05-29T03:29:04;12.10;99.90
38118;DHT22;23928;47.562;7.508;2023-05-29T03:31:30;11.90;99.90
38118;DHT22;23928;47.562;7.508;2023-05-29T03:33:56;11.90;99.90
38118;DHT22;23928;47.562;7.508;2023-05-29T03:36:22;12.00;99.90
38118;DHT22;23928;47.562;7.508;2023-05-29T03:38:47;11.80;99.90
38118;DHT22;23928;47.562;7.508;2023-05-29T03:41:13;12.00;99.90
38118;DHT22;23928;47.562;7.508;2023-05-29T03:43:39;12.30;99.90
38118;DHT22;23928;47.562;7.508;2023-05-29T03:46:04;12.10;99.90
38118;DHT22;23928;47.562;7.508;2023-05-29T03:48:30;12.00;99.90
38118;DHT22;23928;47.562;7.508;2023-05-29T03:50:55;12.10;99.90
38118;DHT22;23928;47.562;7.508;2023-05-29T03:53:21;12.30;99.90
38118;DHT22;23928;47.562;7.508;2023-05-29T03:55:47;12.40;99.90
38118;DHT22;23928;47.562;7.508;2023-05-29T03:58:12;12.20;99.90
38118;DHT22;23928;47.562;7.508;2023-05-29T04:00:38;12.00;99.90
38118;DHT22;23928;47.562;7.508;2023-05-29T04:03:04;12.00;99.90
38118;DHT22;23928;47.562;7.508;2023-05-29T04:05:30;12.00;99.90
38118;DHT22;23928;47.562;7.508;2023-05-29T04:07:56;11.90;99.90
38118;DHT22;23928;47.562;7.508;2023-05-29T04:10:22;11.80;99.90
38118;DHT22;23928;47.562;7.508;2023-05-29T04:12:48;11.70;99.90
38118;DHT22;23928;47.562;7.508;2023-05-29T04:15:14;11.70;99.90
38118;DHT22;23928;47.562;7.508;2023-05-29T04:17:39;11.60;99.90
38118;DHT22;23928;47.562;7.508;2023-05-29T04:20:05;11.70;99.90
38118;DHT22;23928;47.562;7.508;2023-05-29T04:22:37;11.80;99.90
38118;DHT22;23928;47.562;7.508;2023-05-29T04:25:04;11.90;99.90
38118;DHT22;23928;47.562;7.508;2023-05-29T04:27:32;11.80;99.90
38118;DHT22;23928;47.562;7.508;2023-05-29T04:30:05;11.90;99.90
38118;DHT22;23928;47.562;7.508;2023-05-29T04:32:31;11.90;99.90
38118;DHT22;23928;47.562;7.508;2023-05-29T04:34:58;12.00;99.90
38118;DHT22;23928;47.562;7.508;2023-05-29T04:37:28;12.00;99.90
38118;DHT22;23928;47.562;7.508;2023-05-29T04:39:57;12.00;99.90
38118;DHT22;23928;47.562;7.508;2023-05-29T04:42:23;12.00;99.90
38118;DHT22;23928;47.562;7.508;2023-05-29T04:44:51;12.20;99.90
38118;DHT22;23928;47.562;7.508;2023-05-29T04:47:18;12.30;99.90
38118;DHT22;23928;47.562;7.508;2023-05-29T04:49:44;12.40;99.90
38118;DHT22;23928;47.562;7.508;2023-05-29T04:52:14;12.40;99.90
38118;DHT22;23928;47.562;7.508;2023-05-29T04:54:40;12.40;99.90
38118;DHT22;23928;47.562;7.508;2023-05-29T04:57:06;12.40;99.90
38118;DHT22;23928;47.562;7.508;2023-05-29T04:59:31;12.40;99.90
38118;DHT22;23928;47.562;7.508;2023-05-29T05:01:57;12.30;99.90
38118;DHT22;23928;47.562;7.508;2023-05-29T05:04:22;12.40;99.90
38118;DHT22;23928;47.562;7.508;2023-05-29T05:06:48;12.50;99.90
38118;DHT22;23928;47.562;7.508;2023-05-29T05:09:13;12.70;99.90
38118;DHT22;23928;47.562;7.508;2023-05-29T05:11:40;12.90;99.90
38118;DHT22;23928;47.562;7.508;2023-05-29T05:14:05;12.90;99.90
38118;DHT22;23928;47.562;7.508;2023-05-29T05:16:31;12.90;99.90
38118;DHT22;23928;47.562;7.508;2023-05-29T05:18:58;13.10;99.90
38118;DHT22;23928;47.562;7.508;2023-05-29T05:21:23;13.30;99.90
38118;DHT22;23928;47.562;7.508;2023-05-29T05:23:49;13.60;99.90
38118;DHT22;23928;47.562;7.508;2023-05-29T05:26:15;13.80;99.90
38118;DHT22;23928;47.562;7.508;2023-05-29T05:28:40;13.50;99.90
38118;DHT22;23928;47.562;7.508;2023-05-29T05:31:06;13.30;99.90
38118;DHT22;23928;47.562;7.508;2023-05-29T05:33:32;13.40;99.90
38118;DHT22;23928;47.562;7.508;2023-05-29T05:35:57;13.30;99.90
38118;DHT22;23928;47.562;7.508;2023-05-29T05:38:23;13.40;99.90
38118;DHT22;23928;47.562;7.508;2023-05-29T05:40:48;13.50;99.90
38118;DHT22;23928;47.562;7.508;2023-05-29T05:48:17;13.60;99.90
38118;DHT22;23928;47.562;7.508;2023-05-29T05:50:43;13.90;99.90
38118;DHT22;23928;47.562;7.508;2023-05-29T05:53:08;13.90;99.90
38118;DHT22;23928;47.562;7.508;2023-05-29T05:55:34;14.00;99.90
38118;DHT22;23928;47.562;7.508;2023-05-29T05:57:59;14.00;99.90
38118;DHT22;23928;47.562;7.508;2023-05-29T06:00:25;14.00;99.90
38118;DHT22;23928;47.562;7.508;2023-05-29T06:02:51;14.10;99.90
38118;DHT22;23928;47.562;7.508;2023-05-29T06:05:16;14.10;99.90
38118;DHT22;23928;47.562;7.508;2023-05-29T06:07:42;14.20;99.90
38118;DHT22;23928;47.562;7.508;2023-05-29T06:10:08;14.40;99.90
38118;DHT22;23928;47.562;7.508;2023-05-29T06:12:34;14.40;99.90
38118;DHT22;23928;47.562;7.508;2023-05-29T06:15:03;14.40;99.90
38118;DHT22;23928;47.562;7.508;2023-05-29T06:17:29;14.40;99.90
38118;DHT22;23928;47.562;7.508;2023-05-29T06:19:55;14.50;99.90
38118;DHT22;23928;47.562;7.508;2023-05-29T06:22:21;14.50;99.90
38118;DHT22;23928;47.562;7.508;2023-05-29T06:24:46;14.50;99.90
38118;DHT22;23928;47.562;7.508;2023-05-29T06:27:12;14.70;99.90
38118;DHT22;23928;47.562;7.508;2023-05-29T06:29:38;14.80;99.90
38118;DHT22;23928;47.562;7.508;2023-05-29T06:32:03;15.00;99.90
38118;DHT22;23928;47.562;7.508;2023-05-29T06:39:40;15.20;99.90
38118;DHT22;23928;47.562;7.508;2023-05-29T06:42:07;15.30;99.90
38118;DHT22;23928;47.562;7.508;2023-05-29T06:44:33;15.10;99.90
38118;DHT22;23928;47.562;7.508;2023-05-29T06:46:59;15.20;99.90
38118;DHT22;23928;47.562;7.508;2023-05-29T06:49:24;15.50;99.90
38118;DHT22;23928;47.562;7.508;2023-05-29T06:51:50;15.50;99.90
38118;DHT22;23928;47.562;7.508;2023-05-29T06:54:16;15.50;99.90
38118;DHT22;23928;47.562;7.508;2023-05-29T06:56:41;15.60;99.90
38118;DHT22;23928;47.562;7.508;2023-05-29T06:59:07;15.50;99.90
38118;DHT22;23928;47.562;7.508;2023-05-29T07:01:32;15.60;99.90
38118;DHT22;23928;47.562;7.508;2023-05-29T07:03:58;15.90;99.90
38118;DHT22;23928;47.562;7.508;2023-05-29T07:06:24;15.60;99.90
38118;DHT22;23928;47.562;7.508;2023-05-29T07:08:49;15.90;99.90
38118;DHT22;23928;47.562;7.508;2023-05-29T07:11:15;15.80;99.90
38118;DHT22;23928;47.562;7.508;2023-05-29T07:13:41;15.90;99.90
38118;DHT22;23928;47.562;7.508;2023-05-29T07:16:06;16.10;99.90
38118;DHT22;23928;47.562;7.508;2023-05-29T07:18:32;16.00;99.90
38118;DHT22;23928;47.562;7.508;2023-05-29T07:20:59;16.00;99.90
38118;DHT22;23928;47.562;7.508;2023-05-29T07:23:25;16.30;99.90
38118;DHT22;23928;47.562;7.508;2023-05-29T07:25:50;16.40;99.90
38118;DHT22;23928;47.562;7.508;2023-05-29T07:28:16;16.40;99.90
38118;DHT22;23928;47.562;7.508;2023-05-29T07:30:42;16.30;99.90
38118;DHT22;23928;47.562;7.508;2023-05-29T07:33:07;16.40;99.90
38118;DHT22;23928;47.562;7.508;2023-05-29T07:35:33;16.50;99.90
38118;DHT22;23928;47.562;7.508;2023-05-29T07:37:59;16.60;99.90
38118;DHT22;23928;47.562;7.508;2023-05-29T07:40:25;16.50;99.90
38118;DHT22;23928;47.562;7.508;2023-05-29T07:42:50;16.40;99.90
38118;DHT22;23928;47.562;7.508;2023-05-29T07:45:16;16.50;99.90
38118;DHT22;23928;47.562;7.508;2023-05-29T07:47:41;17.00;99.90
38118;DHT22;23928;47.562;7.508;2023-05-29T07:50:08;17.10;99.90
38118;DHT22;23928;47.562;7.508;2023-05-29T07:52:34;17.10;99.90
38118;DHT22;23928;47.562;7.508;2023-05-29T07:55:00;17.30;99.90
38118;DHT22;23928;47.562;7.508;2023-05-29T07:57:27;17.30;99.90
38118;DHT22;23928;47.562;7.508;2023-05-29T07:59:53;17.10;99.90
38118;DHT22;23928;47.562;7.508;2023-05-29T08:02:19;17.20;99.90
38118;DHT22;23928;47.562;7.508;2023-05-29T08:04:44;17.10;99.90
38118;DHT22;23928;47.562;7.508;2023-05-29T08:07:10;17.30;99.90
38118;DHT22;23928;47.562;7.508;2023-05-29T08:09:36;17.50;99.90
38118;DHT22;23928;47.562;7.508;2023-05-29T08:12:02;17.70;99.90
38118;DHT22;23928;47.562;7.508;2023-05-29T08:14:27;17.80;99.90
38118;DHT22;23928;47.562;7.508;2023-05-29T08:16:54;17.70;99.90
38118;DHT22;23928;47.562;7.508;2023-05-29T08:19:19;17.90;99.90
38118;DHT22;23928;47.562;7.508;2023-05-29T08:21:45;17.90;99.90
38118;DHT22;23928;47.562;7.508;2023-05-29T08:24:11;18.10;99.90
38118;DHT22;23928;47.562;7.508;2023-05-29T08:26:36;18.40;99.90
38118;DHT22;23928;47.562;7.508;2023-05-29T08:29:02;18.60;99.90
38118;DHT22;23928;47.562;7.508;2023-05-29T08:31:29;18.30;99.90
38118;DHT22;23928;47.562;7.508;2023-05-29T08:33:55;18.40;99.90
38118;DHT22;23928;47.562;7.508;2023-05-29T08:36:21;18.60;99.90
38118;DHT22;23928;47.562;7.508;2023-05-29T08:38:48;18.80;99.90
38118;DHT22;23928;47.562;7.508;2023-05-29T08:41:28;18.70;99.90
38118;DHT22;23928;47.562;7.508;2023-05-29T08:43:59;18.80;99.90
38118;DHT22;23928;47.562;7.508;2023-05-29T08:46:26;18.80;99.90
38118;DHT22;23928;47.562;7.508;2023-05-29T08:48:53;19.00;99.90
38118;DHT22;23928;47.562;7.508;2023-05-29T08:51:23;18.90;99.90
38118;DHT22;23928;47.562;7.508;2023-05-29T08:53:55;19.30;99.90
38118;DHT22;23928;47.562;7.508;2023-05-29T08:56:21;19.40;99.90
38118;DHT22;23928;47.562;7.508;2023-05-29T08:58:48;19.30;99.90
38118;DHT22;23928;47.562;7.508;2023-05-29T09:01:14;19.20;99.90
38118;DHT22;23928;47.562;7.508;2023-05-29T09:03:40;19.20;99.90
38118;DHT22;23928;47.562;7.508;2023-05-29T09:06:07;19.20;99.90
38118;DHT22;23928;47.562;7.508;2023-05-29T09:08:34;19.30;99.90
38118;DHT22;23928;47.562;7.508;2023-05-29T09:11:00;19.40;99.90
38118;DHT22;23928;47.562;7.508;2023-05-29T09:13:26;19.60;99.90
38118;DHT22;23928;47.562;7.508;2023-05-29T09:15:58;19.70;99.90
38118;DHT22;23928;47.562;7.508;2023-05-29T09:18:25;19.70;99.90
38118;DHT22;23928;47.562;7.508;2023-05-29T09:20:53;19.90;99.90
38118;DHT22;23928;47.562;7.508;2023-05-29T09:23:19;20.10;99.90
38118;DHT22;23928;47.562;7.508;2023-05-29T09:25:51;19.90;99.90
38118;DHT22;23928;47.562;7.508;2023-05-29T09:28:18;20.00;99.90
38118;DHT22;23928;47.562;7.508;2023-05-29T09:30:45;20.10;99.90
38118;DHT22;23928;47.562;7.508;2023-05-29T09:33:15;20.30;99.90
38118;DHT22;23928;47.562;7.508;2023-05-29T09:35:46;20.20;99.90
38118;DHT22;23928;47.562;7.508;2023-05-29T09:38:13;20.30;99.90
38118;DHT22;23928;47.562;7.508;2023-05-29T09:40:40;20.40;99.90
38118;DHT22;23928;47.562;7.508;2023-05-29T09:43:09;20.30;99.90
38118;DHT22;23928;47.562;7.508;2023-05-29T09:45:49;20.70;99.90
38118;DHT22;23928;47.562;7.508;2023-05-29T09:48:16;20.60;99.90
38118;DHT22;23928;47.562;7.508;2023-05-29T09:50:43;20.60;99.90
38118;DHT22;23928;47.562;7.508;2023-05-29T09:53:21;20.70;99.90
38118;DHT22;23928;47.562;7.508;2023-05-29T09:55:51;20.90;99.90
38118;DHT22;23928;47.562;7.508;2023-05-29T09:58:18;21.00;99.90
38118;DHT22;23928;47.562;7.508;2023-05-29T10:00:44;21.20;99.90
38118;DHT22;23928;47.562;7.508;2023-05-29T10:03:10;21.00;99.90
38118;DHT22;23928;47.562;7.508;2023-05-29T10:05:49;21.10;99.90
38118;DHT22;23928;47.562;7.508;2023-05-29T10:08:18;21.20;99.90
38118;DHT22;23928;47.562;7.508;2023-05-29T10:10:49;21.40;99.90
38118;DHT22;23928;47.562;7.508;2023-05-29T10:13:17;21.60;99.90
38118;DHT22;23928;47.562;7.508;2023-05-29T10:15:45;21.40;99.90
38118;DHT22;23928;47.562;7.508;2023-05-29T10:18:23;21.70;99.90
38118;DHT22;23928;47.562;7.508;2023-05-29T10:20:54;22.00;99.90
38118;DHT22;23928;47.562;7.508;2023-05-29T10:23:24;21.70;99.90
38118;DHT22;23928;47.562;7.508;2023-05-29T10:25:53;21.70;99.90
38118;DHT22;23928;47.562;7.508;2023-05-29T10:28:22;21.80;99.90
38118;DHT22;23928;47.562;7.508;2023-05-29T10:31:08;21.90;99.90
38118;DHT22;23928;47.562;7.508;2023-05-29T10:33:56;22.40;99.90
38118;DHT22;23928;47.562;7.508;2023-05-29T10:36:30;22.30;99.90
38118;DHT22;23928;47.562;7.508;2023-05-29T10:38:57;22.60;99.90
38118;DHT22;23928;47.562;7.508;2023-05-29T10:43:57;22.80;99.90
38118;DHT22;23928;47.562;7.508;2023-05-29T10:49:17;22.60;99.90
38118;DHT22;23928;47.562;7.508;2023-05-29T10:51:42;22.70;99.90
38118;DHT22;23928;47.562;7.508;2023-05-29T10:54:09;22.70;99.90
38118;DHT22;23928;47.562;7.508;2023-05-29T10:56:35;22.80;99.90
38118;DHT22;23928;47.562;7.508;2023-05-29T10:59:01;22.70;99.90
38118;DHT22;23928;47.562;7.508;2023-05-29T11:01:28;22.90;99.90
38118;DHT22;23928;47.562;7.508;2023-05-29T11:04:25;23.00;99.90
38118;DHT22;23928;47.562;7.508;2023-05-29T11:06:52;23.10;99.90
38118;DHT22;23928;47.562;7.508;2023-05-29T11:09:29;23.40;99.90
38118;DHT22;23928;47.562;7.508;2023-05-29T11:15:11;23.50;99.90
38118;DHT22;23928;47.562;7.508;2023-05-29T11:20:28;23.60;99.90
38118;DHT22;23928;47.562;7.508;2023-05-29T11:23:02;23.70;99.90
38118;DHT22;23928;47.562;7.508;2023-05-29T11:25:30;23.70;99.90
38118;DHT22;23928;47.562;7.508;2023-05-29T11:27:58;24.00;99.90
38118;DHT22;23928;47.562;7.508;2023-05-29T11:30:23;23.80;99.90
38118;DHT22;23928;47.562;7.508;2023-05-29T11:32:49;24.00;99.90
38118;DHT22;23928;47.562;7.508;2023-05-29T11:35:20;24.10;99.90
38118;DHT22;23928;47.562;7.508;2023-05-29T11:37:47;23.90;99.90
38118;DHT22;23928;47.562;7.508;2023-05-29T11:40:14;24.30;99.90
38118;DHT22;23928;47.562;7.508;2023-05-29T11:42:45;24.20;99.90
38118;DHT22;23928;47.562;7.508;2023-05-29T11:45:19;24.10;99.90
38118;DHT22;23928;47.562;7.508;2023-05-29T11:48:00;24.00;99.90
38118;DHT22;23928;47.562;7.508;2023-05-29T11:50:30;24.00;99.90
38118;DHT22;23928;47.562;7.508;2023-05-29T11:52:57;24.70;99.90
38118;DHT22;23928;47.562;7.508;2023-05-29T11:55:24;25.00;99.90
38118;DHT22;23928;47.562;7.508;2023-05-29T11:57:51;24.90;99.90
38118;DHT22;23928;47.562;7.508;2023-05-29T12:00:20;24.50;99.90
38118;DHT22;23928;47.562;7.508;2023-05-29T12:02:47;24.50;99.90
38118;DHT22;23928;47.562;7.508;2023-05-29T12:05:15;24.20;99.90
38118;DHT22;23928;47.562;7.508;2023-05-29T12:07:48;24.10;99.90
38118;DHT22;23928;47.562;7.508;2023-05-29T12:10:16;24.50;99.90
38118;DHT22;23928;47.562;7.508;2023-05-29T12:12:43;24.50;99.90
38118;DHT22;23928;47.562;7.508;2023-05-29T12:15:12;24.80;99.90
38118;DHT22;23928;47.562;7.508;2023-05-29T12:17:40;25.00;99.90
38118;DHT22;23928;47.562;7.508;2023-05-29T12:20:06;24.60;99.90
38118;DHT22;23928;47.562;7.508;2023-05-29T12:22:35;24.90;99.90
38118;DHT22;23928;47.562;7.508;2023-05-29T12:25:13;24.90;99.90
38118;DHT22;23928;47.562;7.508;2023-05-29T12:27:40;25.20;99.90
38118;DHT22;23928;47.562;7.508;2023-05-29T12:30:10;25.20;99.90
38118;DHT22;23928;47.562;7.508;2023-05-29T12:32:38;25.00;99.90
38118;DHT22;23928;47.562;7.508;2023-05-29T12:35:30;25.20;99.90
38118;DHT22;23928;47.562;7.508;2023-05-29T12:40:27;25.30;99.90
38118;DHT22;23928;47.562;7.508;2023-05-29T12:42:59;25.00;99.90
38118;DHT22;23928;47.562;7.508;2023-05-29T12:45:27;25.00;99.90
38118;DHT22;23928;47.562;7.508;2023-05-29T12:48:00;25.20;99.90
38118;DHT22;23928;47.562;7.508;2023-05-29T12:50:39;25.80;99.90
38118;DHT22;23928;47.562;7.508;2023-05-29T12:53:12;26.00;99.90
38118;DHT22;23928;47.562;7.508;2023-05-29T12:55:40;26.10;99.90
38118;DHT22;23928;47.562;7.508;2023-05-29T12:58:11;26.70;99.90
38118;DHT22;23928;47.562;7.508;2023-05-29T13:00:38;26.00;99.90
38118;DHT22;23928;47.562;7.508;2023-05-29T13:03:05;25.90;99.90
38118;DHT22;23928;47.562;7.508;2023-05-29T13:05:32;25.40;99.90
38118;DHT22;23928;47.562;7.508;2023-05-29T13:07:58;25.40;99.90
38118;DHT22;23928;47.562;7.508;2023-05-29T13:10:25;25.60;99.90
38118;DHT22;23928;47.562;7.508;2023-05-29T13:12:53;26.10;99.90
38118;DHT22;23928;47.562;7.508;2023-05-29T13:15:25;26.00;99.90
38118;DHT22;23928;47.562;7.508;2023-05-29T13:17:52;25.80;99.90
38118;DHT22;23928;47.562;7.508;2023-05-29T13:20:18;25.90;99.90
38118;DHT22;23928;47.562;7.508;2023-05-29T13:22:47;25.80;99.90
38118;DHT22;23928;47.562;7.508;2023-05-29T13:25:14;25.90;99.90
38118;DHT22;23928;47.562;7.508;2023-05-29T13:27:45;25.90;99.90
38118;DHT22;23928;47.562;7.508;2023-05-29T13:30:12;26.30;99.90
38118;DHT22;23928;47.562;7.508;2023-05-29T13:32:38;26.00;99.90
38118;DHT22;23928;47.562;7.508;2023-05-29T13:35:04;26.10;99.90
38118;DHT22;23928;47.562;7.508;2023-05-29T13:37:31;26.30;99.90
38118;DHT22;23928;47.562;7.508;2023-05-29T13:39:56;26.30;99.90
38118;DHT22;23928;47.562;7.508;2023-05-29T13:42:22;26.30;99.90
38118;DHT22;23928;47.562;7.508;2023-05-29T13:44:48;26.20;99.90
38118;DHT22;23928;47.562;7.508;2023-05-29T13:47:14;26.50;99.90
38118;DHT22;23928;47.562;7.508;2023-05-29T13:49:40;26.60;99.90
38118;DHT22;23928;47.562;7.508;2023-05-29T13:52:06;26.30;99.90
38118;DHT22;23928;47.562;7.508;2023-05-29T13:54:32;26.30;99.90
38118;DHT22;23928;47.562;7.508;2023-05-29T13:57:05;27.10;99.90
38118;DHT22;23928;47.562;7.508;2023-05-29T13:59:35;26.70;99.90
38118;DHT22;23928;47.562;7.508;2023-05-29T14:02:01;26.20;99.90
38118;DHT22;23928;47.562;7.508;2023-05-29T14:04:30;26.50;99.90
38118;DHT22;23928;47.562;7.508;2023-05-29T14:06:56;26.80;99.90
38118;DHT22;23928;47.562;7.508;2023-05-29T14:09:22;27.50;99.90
38118;DHT22;23928;47.562;7.508;2023-05-29T14:11:57;26.80;99.90
38118;DHT22;23928;47.562;7.508;2023-05-29T14:14:23;26.50;99.90
38118;DHT22;23928;47.562;7.508;2023-05-29T14:16:50;26.30;99.90
38118;DHT22;23928;47.562;7.508;2023-05-29T14:19:16;26.40;99.90
38118;DHT22;23928;47.562;7.508;2023-05-29T14:21:41;26.50;99.90
38118;DHT22;23928;47.562;7.508;2023-05-29T14:24:07;26.60;99.90
38118;DHT22;23928;47.562;7.508;2023-05-29T14:26:33;26.80;99.90
38118;DHT22;23928;47.562;7.508;2023-05-29T14:28:59;26.80;99.90
38118;DHT22;23928;47.562;7.508;2023-05-29T14:31:24;27.10;99.90
38118;DHT22;23928;47.562;7.508;2023-05-29T14:33:50;26.90;99.90
38118;DHT22;23928;47.562;7.508;2023-05-29T14:36:16;27.00;99.90
38118;DHT22;23928;47.562;7.508;2023-05-29T14:38:41;26.60;99.90
38118;DHT22;23928;47.562;7.508;2023-05-29T14:41:09;26.30;99.90
38118;DHT22;23928;47.562;7.508;2023-05-29T14:43:35;26.60;99.90
38118;DHT22;23928;47.562;7.508;2023-05-29T14:46:01;26.50;99.90
38118;DHT22;23928;47.562;7.508;2023-05-29T14:48:27;26.60;99.90
38118;DHT22;23928;47.562;7.508;2023-05-29T14:50:52;27.10;99.90
38118;DHT22;23928;47.562;7.508;2023-05-29T14:53:18;27.40;99.90
38118;DHT22;23928;47.562;7.508;2023-05-29T14:55:45;27.10;99.90
38118;DHT22;23928;47.562;7.508;2023-05-29T14:58:11;26.80;99.90
38118;DHT22;23928;47.562;7.508;2023-05-29T15:00:39;26.60;99.90
38118;DHT22;23928;47.562;7.508;2023-05-29T15:03:04;27.00;99.90
38118;DHT22;23928;47.562;7.508;2023-05-29T15:05:30;27.30;99.90
38118;DHT22;23928;47.562;7.508;2023-05-29T15:07:56;26.40;99.90
38118;DHT22;23928;47.562;7.508;2023-05-29T15:10:25;26.10;99.90
38118;DHT22;23928;47.562;7.508;2023-05-29T15:12:54;25.50;99.90
38118;DHT22;23928;47.562;7.508;2023-05-29T15:15:24;25.80;99.90
38118;DHT22;23928;47.562;7.508;2023-05-29T15:17:49;26.60;99.90
38118;DHT22;23928;47.562;7.508;2023-05-29T15:20:19;26.40;99.90
38118;DHT22;23928;47.562;7.508;2023-05-29T15:22:45;26.90;99.90
38118;DHT22;23928;47.562;7.508;2023-05-29T15:25:11;26.90;99.90
38118;DHT22;23928;47.562;7.508;2023-05-29T15:27:36;27.00;99.90
38118;DHT22;23928;47.562;7.508;2023-05-29T15:30:12;27.00;99.90
38118;DHT22;23928;47.562;7.508;2023-05-29T15:32:39;27.00;99.90
38118;DHT22;23928;47.562;7.508;2023-05-29T15:35:07;27.10;99.90
38118;DHT22;23928;47.562;7.508;2023-05-29T15:37:33;27.70;99.90
38118;DHT22;23928;47.562;7.508;2023-05-29T15:40:02;27.40;99.90
38118;DHT22;23928;47.562;7.508;2023-05-29T15:42:28;27.40;99.90
38118;DHT22;23928;47.562;7.508;2023-05-29T15:44:54;27.20;99.90
38118;DHT22;23928;47.562;7.508;2023-05-29T15:47:19;27.00;99.90
38118;DHT22;23928;47.562;7.508;2023-05-29T15:49:45;27.20;99.90
38118;DHT22;23928;47.562;7.508;2023-05-29T15:52:12;27.80;99.90
38118;DHT22;23928;47.562;7.508;2023-05-29T15:54:37;27.60;99.90
38118;DHT22;23928;47.562;7.508;2023-05-29T15:57:03;27.60;99.90
38118;DHT22;23928;47.562;7.508;2023-05-29T15:59:28;27.20;99.90
38118;DHT22;23928;47.562;7.508;2023-05-29T16:01:54;27.50;99.90
38118;DHT22;23928;47.562;7.508;2023-05-29T16:04:20;27.50;99.90
38118;DHT22;23928;47.562;7.508;2023-05-29T16:06:45;28.10;99.90